EGJJ

Jersey Airport

Airport
ICAO code
EGJJ
IATA Code
JER
Summary
ICAO Region
EUR
ICAO Territory
Location

Saint Peter, Jersey

Serving
St Hellier
Elevation
277 ft
Coordinates
49° 12' 26" N , 2° 11' 41" W
KCC
Metar
Observation
EGJJ 252020Z 29007KT 260V330 9999 FEW028 13/07 Q1018
Station
Jersey Airport
Date/Time
2022-09-25 20:20:00
Wind direction
290°
Wind speed
07 kts
Lowest cloud amount
few clouds
Temperature
13°C
Dew point
7°C
Humidity
66%
QNH
1018 hPa
Weather condition
n/a

The only airport on the Channel Island of Jersey, a self-governing British Crown Dependency.

Runways

Designator Length Width Surface Rops
08/26 1706 46 ASP Yes/Yes

SKYbrary Partners:

Safety knowledge contributed by: